createdAt,value
2022-11-16T03:59:28.068Z,993.93
2022-11-16T04:00:28.049Z,993.90
2022-11-16T04:01:28.114Z,993.91
2022-11-16T04:02:28.044Z,993.92
2022-11-16T04:03:28.053Z,993.88
2022-11-16T04:04:28.040Z,993.89
2022-11-16T04:05:28.048Z,993.91
2022-11-16T04:06:28.060Z,993.95
2022-11-16T04:07:28.105Z,993.88
2022-11-16T04:08:28.063Z,993.88
2022-11-16T04:09:28.034Z,993.92
2022-11-16T04:10:28.045Z,993.90
2022-11-16T04:11:28.058Z,993.88
2022-11-16T04:12:28.066Z,993.86
2022-11-16T04:13:28.115Z,993.86
2022-11-16T04:14:26.382Z,993.86
2022-11-16T04:15:26.406Z,993.88
2022-11-16T04:16:27.564Z,993.83
2022-11-16T04:17:26.429Z,993.89
2022-11-16T04:18:26.383Z,993.84
2022-11-16T04:19:27.561Z,993.83
2022-11-16T04:20:26.370Z,993.82
2022-11-16T04:21:26.376Z,993.83
2022-11-16T04:22:26.368Z,993.86
2022-11-16T04:23:26.397Z,993.81
2022-11-16T04:24:27.569Z,993.82
2022-11-16T04:25:26.356Z,993.86
2022-11-16T04:26:26.341Z,993.85
2022-11-16T04:27:26.331Z,993.81
2022-11-16T04:28:28.570Z,993.83
2022-11-16T04:29:26.355Z,993.82
2022-11-16T04:30:26.319Z,993.79
2022-11-16T04:31:28.088Z,993.84
2022-11-16T04:32:27.571Z,993.83
2022-11-16T04:33:28.066Z,993.84
2022-11-16T04:34:28.068Z,993.83
2022-11-16T04:35:28.176Z,993.84
2022-11-16T04:36:28.094Z,993.83
2022-11-16T04:37:28.058Z,993.84
2022-11-16T04:38:28.066Z,993.88
2022-11-16T04:39:28.076Z,993.86
2022-11-16T04:40:28.100Z,993.86
2022-11-16T04:41:28.082Z,993.84
2022-11-16T04:42:28.110Z,993.81
2022-11-16T04:43:27.592Z,993.84
2022-11-16T04:44:30.037Z,993.89
2022-11-16T04:45:28.078Z,993.87
2022-11-16T04:46:28.068Z,993.84
2022-11-16T04:47:28.094Z,993.89
2022-11-16T04:48:28.092Z,993.89
2022-11-16T04:49:28.101Z,993.93
2022-11-16T04:50:26.317Z,993.91
2022-11-16T04:51:28.073Z,993.92
2022-11-16T04:52:28.088Z,993.95
2022-11-16T04:53:26.312Z,993.97
2022-11-16T04:54:28.142Z,993.93
2022-11-16T04:55:26.276Z,993.94
2022-11-16T04:56:26.237Z,993.94
2022-11-16T04:57:26.232Z,993.95
2022-11-16T04:58:26.230Z,993.95
2022-11-16T04:59:28.168Z,993.96
2022-11-16T05:00:27.618Z,993.92
2022-11-16T05:01:26.304Z,993.99
2022-11-16T05:02:27.252Z,993.94
2022-11-16T05:03:28.616Z,993.99
2022-11-16T05:04:27.211Z,993.97
2022-11-16T05:05:27.280Z,993.95
2022-11-16T05:06:26.217Z,993.94
2022-11-16T05:07:26.285Z,993.92
2022-11-16T05:08:27.600Z,993.95
2022-11-16T05:09:26.197Z,993.91
2022-11-16T05:10:26.198Z,993.86
2022-11-16T05:11:28.111Z,993.89
2022-11-16T05:12:27.171Z,993.90
2022-11-16T05:13:28.158Z,993.90
2022-11-16T05:14:27.211Z,993.91
2022-11-16T05:15:28.095Z,993.91
2022-11-16T05:16:28.095Z,993.91
2022-11-16T05:17:28.109Z,993.87
2022-11-16T05:18:28.131Z,993.87
2022-11-16T05:19:28.115Z,993.87
2022-11-16T05:20:28.117Z,993.85
2022-11-16T05:21:28.121Z,993.84
2022-11-16T05:22:28.106Z,993.81
2022-11-16T05:23:28.116Z,993.84
2022-11-16T05:24:28.111Z,993.82
2022-11-16T05:25:32.530Z,993.82
2022-11-16T05:26:28.098Z,993.84
2022-11-16T05:27:28.118Z,993.83
2022-11-16T05:28:28.159Z,993.87
2022-11-16T05:29:27.119Z,993.81
2022-11-16T05:30:27.140Z,993.86
2022-11-16T05:31:26.118Z,993.84
2022-11-16T05:32:28.139Z,993.85
2022-11-16T05:33:27.613Z,993.87
2022-11-16T05:34:27.613Z,993.86
2022-11-16T05:35:27.668Z,993.83
2022-11-16T05:36:27.643Z,993.88
2022-11-16T05:37:27.630Z,993.79
2022-11-16T05:38:27.632Z,993.85
2022-11-16T05:39:27.631Z,993.87
2022-11-16T05:40:26.090Z,993.82
2022-11-16T05:41:27.647Z,993.80
2022-11-16T05:42:27.654Z,993.84
2022-11-16T05:43:27.171Z,993.86
2022-11-16T05:44:27.637Z,993.88
2022-11-16T05:45:27.630Z,993.86
2022-11-16T05:46:27.648Z,993.85
2022-11-16T05:47:27.636Z,993.87
2022-11-16T05:48:27.659Z,993.88
2022-11-16T05:49:27.635Z,993.87
2022-11-16T05:50:27.632Z,993.87
2022-11-16T05:51:27.641Z,993.89
2022-11-16T05:52:27.650Z,993.86
2022-11-16T05:53:27.657Z,993.88
2022-11-16T05:54:26.047Z,993.87
2022-11-16T05:55:27.626Z,993.90
2022-11-16T05:56:27.704Z,993.90
2022-11-16T05:57:27.664Z,993.94
2022-11-16T05:58:26.650Z,993.93
2022-11-16T05:59:26.100Z,993.98
2022-11-16T06:00:26.052Z,994.01
2022-11-16T06:01:26.014Z,994.00
2022-11-16T06:02:27.158Z,994.00
2022-11-16T06:03:26.062Z,994.02
2022-11-16T06:04:27.137Z,993.99
2022-11-16T06:05:27.643Z,994.02
2022-11-16T06:06:27.635Z,993.98
2022-11-16T06:07:27.746Z,994.01
2022-11-16T06:08:27.674Z,994.00
2022-11-16T06:09:27.640Z,994.02
2022-11-16T06:10:27.654Z,994.03
2022-11-16T06:11:32.714Z,994.04
2022-11-16T06:12:27.640Z,994.01
2022-11-16T06:13:26.972Z,994.03
2022-11-16T06:14:27.672Z,994.04
2022-11-16T06:15:27.664Z,994.02
2022-11-16T06:16:27.923Z,994.04
2022-11-16T06:17:27.673Z,994.05
2022-11-16T06:18:27.644Z,994.09
2022-11-16T06:19:32.185Z,994.07
2022-11-16T06:20:27.678Z,994.08
2022-11-16T06:21:27.662Z,994.09
2022-11-16T06:22:27.664Z,994.11
2022-11-16T06:23:27.677Z,994.12
2022-11-16T06:24:27.675Z,994.16
2022-11-16T06:25:27.674Z,994.16
2022-11-16T06:26:27.666Z,994.16
2022-11-16T06:27:27.162Z,994.21
2022-11-16T06:28:25.955Z,994.25
2022-11-16T06:29:26.028Z,994.24
2022-11-16T06:30:26.089Z,994.27
2022-11-16T06:31:25.950Z,994.25
2022-11-16T06:32:27.961Z,994.31
2022-11-16T06:33:28.595Z,994.28
2022-11-16T06:34:26.043Z,994.28
2022-11-16T06:35:26.037Z,994.31
2022-11-16T06:36:26.095Z,994.30
2022-11-16T06:37:27.734Z,994.30
2022-11-16T06:38:26.891Z,994.35
2022-11-16T06:39:29.841Z,994.39
2022-11-16T06:40:29.735Z,994.36
2022-11-16T06:41:27.177Z,994.37
2022-11-16T06:42:27.180Z,994.38
2022-11-16T06:43:26.871Z,994.38
2022-11-16T06:44:27.728Z,994.35
2022-11-16T06:45:25.858Z,994.38
2022-11-16T06:46:27.703Z,994.34
2022-11-16T06:47:27.197Z,994.35
2022-11-16T06:48:27.503Z,994.39
2022-11-16T06:49:25.849Z,994.38
2022-11-16T06:50:27.701Z,994.33
2022-11-16T06:51:25.839Z,994.35
2022-11-16T06:52:27.709Z,994.32
2022-11-16T06:53:29.372Z,994.34
2022-11-16T06:54:25.850Z,994.32
2022-11-16T06:55:25.953Z,994.33
2022-11-16T06:56:25.838Z,994.39
2022-11-16T06:57:26.869Z,994.37
2022-11-16T06:58:29.188Z,994.37
2022-11-16T06:59:27.175Z,994.39
2022-11-16T07:00:29.013Z,994.41
2022-11-16T07:01:26.148Z,994.46
2022-11-16T07:02:33.693Z,994.47
2022-11-16T07:03:25.802Z,994.53
2022-11-16T07:04:25.971Z,994.53
2022-11-16T07:05:25.878Z,994.50
2022-11-16T07:06:27.772Z,994.54
2022-11-16T07:07:27.804Z,994.57
2022-11-16T07:08:27.706Z,994.57
2022-11-16T07:09:27.713Z,994.54
2022-11-16T07:10:27.692Z,994.57
2022-11-16T07:11:27.700Z,994.55
2022-11-16T07:12:27.691Z,994.60
2022-11-16T07:13:27.717Z,994.58
2022-11-16T07:14:27.693Z,994.60
2022-11-16T07:15:27.692Z,994.58
2022-11-16T07:16:27.728Z,994.63
2022-11-16T07:17:27.696Z,994.61
2022-11-16T07:18:27.712Z,994.63
2022-11-16T07:19:27.707Z,994.67
2022-11-16T07:20:27.816Z,994.70
2022-11-16T07:21:27.730Z,994.72
2022-11-16T07:22:25.735Z,994.71
2022-11-16T07:23:27.726Z,994.73
2022-11-16T07:24:26.710Z,994.80
2022-11-16T07:25:25.745Z,994.80
2022-11-16T07:26:25.744Z,994.80
2022-11-16T07:27:26.775Z,994.82
2022-11-16T07:28:27.261Z,994.83
2022-11-16T07:29:25.733Z,994.81
2022-11-16T07:30:27.343Z,994.82
2022-11-16T07:31:25.772Z,994.85
2022-11-16T07:32:25.767Z,994.81
2022-11-16T07:33:25.733Z,994.83
2022-11-16T07:34:27.259Z,994.89
2022-11-16T07:35:25.757Z,994.85
2022-11-16T07:36:27.231Z,994.86
2022-11-16T07:37:27.313Z,994.85
2022-11-16T07:38:25.687Z,994.90
2022-11-16T07:39:25.720Z,994.90
2022-11-16T07:40:25.703Z,994.89
2022-11-16T07:41:27.259Z,994.91
2022-11-16T07:42:26.676Z,994.94
2022-11-16T07:43:27.269Z,994.93
2022-11-16T07:44:27.236Z,994.97
2022-11-16T07:45:27.236Z,994.96
2022-11-16T07:47:27.232Z,994.99
2022-11-16T07:48:29.280Z,994.99
2022-11-16T07:49:27.329Z,995.00
2022-11-16T07:50:27.230Z,995.02
2022-11-16T07:51:27.299Z,994.99
2022-11-16T07:52:27.458Z,995.00
2022-11-16T07:53:27.223Z,995.00
2022-11-16T07:54:27.238Z,995.04
2022-11-16T07:55:27.338Z,995.02
2022-11-16T07:56:27.240Z,995.05
2022-11-16T07:57:26.761Z,995.05
2022-11-16T07:58:25.700Z,995.07
2022-11-16T07:59:25.620Z,995.10
2022-11-16T08:00:27.257Z,995.13
2022-11-16T08:01:25.631Z,995.13
2022-11-16T08:02:27.282Z,995.16
2022-11-16T08:03:27.362Z,995.17
2022-11-16T08:04:25.600Z,995.13
2022-11-16T08:05:25.612Z,995.14
2022-11-16T08:06:25.613Z,995.17
2022-11-16T08:07:25.648Z,995.18
2022-11-16T08:08:27.322Z,995.20
2022-11-16T08:09:25.604Z,995.19
2022-11-16T08:10:25.613Z,995.21
2022-11-16T08:11:27.286Z,995.20
2022-11-16T08:12:25.571Z,995.19
2022-11-16T08:13:27.253Z,995.20
2022-11-16T08:14:25.582Z,995.13
2022-11-16T08:15:27.252Z,995.19
2022-11-16T08:16:25.552Z,995.21
2022-11-16T08:17:27.244Z,995.24
2022-11-16T08:18:27.383Z,995.21
2022-11-16T08:19:27.299Z,995.24
2022-11-16T08:20:30.780Z,995.23
2022-11-16T08:21:25.713Z,995.25
2022-11-16T08:22:27.284Z,995.23
2022-11-16T08:23:26.555Z,995.21
2022-11-16T08:24:27.494Z,995.22
2022-11-16T08:25:26.566Z,995.22
2022-11-16T08:26:26.691Z,995.22
2022-11-16T08:27:25.648Z,995.19
2022-11-16T08:28:25.543Z,995.20
2022-11-16T08:29:28.773Z,995.14
2022-11-16T08:30:26.372Z,995.15
2022-11-16T08:31:26.783Z,995.16
2022-11-16T08:32:26.435Z,995.18
2022-11-16T08:33:25.579Z,995.22
2022-11-16T08:34:26.204Z,995.18
2022-11-16T08:35:25.580Z,995.21
2022-11-16T08:36:31.128Z,995.18
2022-11-16T08:37:25.965Z,995.21
2022-11-16T08:38:25.739Z,995.24
2022-11-16T08:39:27.545Z,995.22
2022-11-16T08:40:25.579Z,995.22
2022-11-16T08:41:28.693Z,995.23
2022-11-16T08:42:27.302Z,995.22
2022-11-16T08:43:31.131Z,995.25
2022-11-16T08:44:25.575Z,995.26
2022-11-16T08:45:27.362Z,995.25
2022-11-16T08:46:27.466Z,995.25
2022-11-16T08:47:27.744Z,995.23
2022-11-16T08:48:25.437Z,995.26
2022-11-16T08:49:28.381Z,995.29
2022-11-16T08:50:28.396Z,995.29
2022-11-16T08:51:29.113Z,995.33
2022-11-16T08:52:27.320Z,995.33
2022-11-16T08:53:26.362Z,995.33
2022-11-16T08:54:26.199Z,995.33
2022-11-16T08:55:26.495Z,995.27
2022-11-16T08:56:26.057Z,995.29
2022-11-16T08:57:27.670Z,995.32
2022-11-16T08:58:26.577Z,995.35
2022-11-16T08:59:25.960Z,995.37
2022-11-16T09:00:27.556Z,995.37
2022-11-16T09:01:25.588Z,995.41
2022-11-16T09:02:25.882Z,995.41
2022-11-16T09:03:27.355Z,995.38
2022-11-16T09:04:25.519Z,995.38
2022-11-16T09:05:25.866Z,995.41
2022-11-16T09:06:25.479Z,995.40
2022-11-16T09:07:25.520Z,995.45
2022-11-16T09:08:25.478Z,995.43
2022-11-16T09:09:27.466Z,995.45
2022-11-16T09:10:25.653Z,995.47
2022-11-16T09:11:27.628Z,995.45
2022-11-16T09:12:25.511Z,995.46
2022-11-16T09:13:27.372Z,995.45
2022-11-16T09:14:27.452Z,995.45
2022-11-16T09:15:27.346Z,995.44
2022-11-16T09:16:27.414Z,995.46
2022-11-16T09:17:27.351Z,995.44
2022-11-16T09:18:27.355Z,995.40
2022-11-16T09:19:27.353Z,995.45
2022-11-16T09:20:27.394Z,995.43
2022-11-16T09:21:27.309Z,995.42
2022-11-16T09:22:25.370Z,995.44
2022-11-16T09:23:26.344Z,995.47
2022-11-16T09:24:26.352Z,995.46
2022-11-16T09:25:26.337Z,995.48
2022-11-16T09:26:26.477Z,995.47
2022-11-16T09:27:31.354Z,995.47
2022-11-16T09:28:26.470Z,995.46
2022-11-16T09:29:26.990Z,995.47
2022-11-16T09:30:26.873Z,995.47
2022-11-16T09:31:26.857Z,995.50
2022-11-16T09:32:25.336Z,995.54
2022-11-16T09:33:25.306Z,995.53
2022-11-16T09:34:25.335Z,995.53
2022-11-16T09:35:25.300Z,995.56
2022-11-16T09:36:26.850Z,995.55
2022-11-16T09:37:25.292Z,995.55
2022-11-16T09:38:40.295Z,995.60
2022-11-16T09:39:31.107Z,995.55
2022-11-16T09:40:27.704Z,995.57
2022-11-16T09:41:26.897Z,995.56
2022-11-16T09:42:26.470Z,995.59
2022-11-16T09:43:25.286Z,995.61
2022-11-16T09:44:26.852Z,995.62
2022-11-16T09:45:25.274Z,995.64
2022-11-16T09:46:27.311Z,995.65
2022-11-16T09:47:26.885Z,995.68
2022-11-16T09:48:25.281Z,995.69
2022-11-16T09:49:26.838Z,995.72
2022-11-16T09:50:26.887Z,995.73
2022-11-16T09:51:27.349Z,995.71
2022-11-16T09:52:26.364Z,995.70
2022-11-16T09:53:26.882Z,995.72
2022-11-16T09:54:26.830Z,995.74
2022-11-16T09:56:26.485Z,995.74
2022-11-16T09:57:26.889Z,995.80
2022-11-16T09:58:26.829Z,995.74
2022-11-16T09:59:26.981Z,995.78
2022-11-16T10:00:27.508Z,995.79
2022-11-16T10:01:27.024Z,995.79
2022-11-16T10:02:26.901Z,995.81
2022-11-16T10:13:47.476Z,995.85
2022-11-16T10:14:38.850Z,995.80
2022-11-16T10:15:38.794Z,995.90
2022-11-16T10:16:54.273Z,995.86
2022-11-16T10:17:38.768Z,995.84
2022-11-16T10:18:40.765Z,995.84
2022-11-16T10:19:44.746Z,995.82
2022-11-16T10:20:40.346Z,995.84
2022-11-16T10:22:41.197Z,995.87
2022-11-16T10:23:41.261Z,995.86
2022-11-16T10:24:52.138Z,995.87
2022-11-16T10:25:39.650Z,995.86
2022-11-16T10:26:42.597Z,995.85
2022-11-16T10:27:43.183Z,995.87
2022-11-16T10:28:39.266Z,995.84
2022-11-16T10:29:40.467Z,995.84
2022-11-16T10:30:41.858Z,995.82
2022-11-16T10:31:39.113Z,995.84
2022-11-16T10:32:44.404Z,995.84
2022-11-16T10:33:40.619Z,995.84
2022-11-16T10:34:41.473Z,995.79
2022-11-16T10:35:45.391Z,995.80
2022-11-16T10:36:43.159Z,995.83
2022-11-16T10:37:56.148Z,995.81
2022-11-16T10:38:39.902Z,995.87
2022-11-16T10:39:38.712Z,995.84
2022-11-16T10:40:38.646Z,995.89
2022-11-16T10:41:38.648Z,995.84
2022-11-16T10:42:42.723Z,995.84
2022-11-16T10:43:39.032Z,995.85
2022-11-16T10:44:39.002Z,995.86
2022-11-16T10:45:39.429Z,995.88
2022-11-16T10:46:40.958Z,995.85
2022-11-16T10:47:43.448Z,995.82
2022-11-16T10:48:41.354Z,995.85
2022-11-16T10:49:40.374Z,995.82
2022-11-16T10:50:40.363Z,995.82
2022-11-16T10:51:40.399Z,995.82
2022-11-16T10:52:40.419Z,995.78
2022-11-16T10:53:40.648Z,995.81
2022-11-16T10:54:44.268Z,995.78
2022-11-16T10:55:40.360Z,995.80
2022-11-16T10:56:40.367Z,995.77
2022-11-16T10:57:38.630Z,995.78
2022-11-16T10:58:38.590Z,995.76
2022-11-16T10:59:38.615Z,995.75
2022-11-16T11:00:40.393Z,995.73
2022-11-16T11:01:38.586Z,995.69
2022-11-16T11:02:40.475Z,995.66
2022-11-16T11:03:39.614Z,995.67
2022-11-16T11:04:39.558Z,995.66
2022-11-16T11:05:39.852Z,995.62
2022-11-16T11:06:40.372Z,995.64
2022-11-16T11:07:39.684Z,995.65
2022-11-16T11:08:40.357Z,995.63
2022-11-16T11:09:38.587Z,995.62
2022-11-16T11:10:44.372Z,995.60
2022-11-16T11:11:38.526Z,995.57
2022-11-16T11:12:40.436Z,995.58
2022-11-16T11:13:38.683Z,995.59
2022-11-16T11:14:40.443Z,995.59
2022-11-16T11:15:40.414Z,995.60
2022-11-16T11:16:40.359Z,995.59
2022-11-16T11:17:40.346Z,995.57
2022-11-16T11:18:40.459Z,995.58
2022-11-16T11:19:40.371Z,995.60
2022-11-16T11:20:44.720Z,995.58
2022-11-16T11:21:40.410Z,995.57
2022-11-16T11:22:38.505Z,995.60
2022-11-16T11:23:40.409Z,995.56
2022-11-16T11:24:44.427Z,995.57
2022-11-16T11:25:40.380Z,995.58
2022-11-16T11:26:38.517Z,995.56
2022-11-16T11:27:38.495Z,995.57
2022-11-16T11:28:40.393Z,995.53
2022-11-16T11:29:38.487Z,995.59
2022-11-16T11:30:38.515Z,995.59
2022-11-16T11:31:39.475Z,995.59
2022-11-16T11:32:40.377Z,995.61
2022-11-16T11:33:39.884Z,995.59
2022-11-16T11:34:40.464Z,995.59
2022-11-16T11:35:40.382Z,995.56
2022-11-16T11:36:40.372Z,995.60
2022-11-16T11:37:40.365Z,995.63
2022-11-16T11:38:40.397Z,995.60
2022-11-16T11:39:40.487Z,995.59
2022-11-16T11:40:41.427Z,995.57
2022-11-16T11:41:40.452Z,995.60
2022-11-16T11:42:40.388Z,995.62
2022-11-16T11:43:41.400Z,995.63
2022-11-16T11:44:40.379Z,995.61
2022-11-16T11:45:41.004Z,995.67
2022-11-16T11:47:23.650Z,995.63
2022-11-16T11:47:57.477Z,995.64
2022-11-16T11:48:40.429Z,995.64
2022-11-16T11:49:40.877Z,995.65
2022-11-16T11:50:39.905Z,995.64
2022-11-16T11:51:40.414Z,995.63
2022-11-16T11:52:40.827Z,995.66
2022-11-16T11:53:40.422Z,995.62
2022-11-16T11:54:45.541Z,995.65
2022-11-16T11:55:41.160Z,995.65
2022-11-16T11:56:39.576Z,995.67
2022-11-16T11:57:40.392Z,995.64
2022-11-16T11:58:38.442Z,995.61
2022-11-16T11:59:39.837Z,995.56
2022-11-16T12:00:38.456Z,995.58
2022-11-16T12:01:39.914Z,995.58
2022-11-16T12:02:38.554Z,995.59
2022-11-16T12:03:39.906Z,995.56
2022-11-16T12:04:39.918Z,995.56
2022-11-16T12:05:39.899Z,995.54
2022-11-16T12:06:43.949Z,995.56
2022-11-16T12:07:40.961Z,995.56
2022-11-16T12:08:39.892Z,995.63
2022-11-16T12:09:39.992Z,995.64
2022-11-16T12:10:40.461Z,995.61
2022-11-16T12:11:40.985Z,995.61
2022-11-16T12:12:41.370Z,995.57
2022-11-16T12:13:39.932Z,995.59
2022-11-16T12:14:39.941Z,995.59
2022-11-16T12:15:40.331Z,995.56
2022-11-16T12:16:41.236Z,995.52
2022-11-16T12:17:40.863Z,995.52
2022-11-16T12:18:40.052Z,995.51
2022-11-16T12:19:38.412Z,995.49
2022-11-16T12:20:39.966Z,995.54
2022-11-16T12:21:40.599Z,995.53
2022-11-16T12:22:38.579Z,995.57
2022-11-16T12:23:38.804Z,995.58
2022-11-16T12:24:43.215Z,995.59
2022-11-16T12:25:38.650Z,995.52
2022-11-16T12:26:40.669Z,995.52
2022-11-16T12:27:38.866Z,995.53
2022-11-16T12:28:38.419Z,995.51
2022-11-16T12:29:46.427Z,995.47
2022-11-16T12:30:38.373Z,995.49
2022-11-16T12:31:38.358Z,995.51
2022-11-16T12:32:38.369Z,995.48
2022-11-16T12:33:39.047Z,995.50
2022-11-16T12:34:38.420Z,995.51
2022-11-16T12:35:38.361Z,995.53
2022-11-16T12:36:38.412Z,995.49
2022-11-16T12:37:38.356Z,995.49
2022-11-16T12:38:40.115Z,995.46
2022-11-16T12:39:38.357Z,995.42
2022-11-16T12:40:39.938Z,995.43
2022-11-16T12:41:40.067Z,995.38
2022-11-16T12:42:38.490Z,995.38
2022-11-16T12:43:39.925Z,995.37
2022-11-16T12:44:38.557Z,995.36
2022-11-16T12:45:38.379Z,995.38
2022-11-16T12:46:40.964Z,995.34
2022-11-16T12:47:38.382Z,995.40
2022-11-16T12:48:39.958Z,995.37
2022-11-16T12:49:38.356Z,995.36
2022-11-16T12:50:42.131Z,995.35
2022-11-16T12:51:39.942Z,995.38
2022-11-16T12:52:38.387Z,995.36
2022-11-16T12:53:39.465Z,995.36
2022-11-16T12:54:38.656Z,995.41
2022-11-16T12:55:42.956Z,995.36
2022-11-16T12:56:42.354Z,995.36
2022-11-16T12:57:38.449Z,995.36
2022-11-16T12:58:39.976Z,995.34
2022-11-16T12:59:39.952Z,995.39
2022-11-16T13:00:38.361Z,995.37
2022-11-16T13:01:38.389Z,995.34
2022-11-16T13:02:40.052Z,995.38
2022-11-16T13:03:38.406Z,995.37
2022-11-16T13:04:39.951Z,995.34
2022-11-16T13:05:39.533Z,995.36
2022-11-16T13:06:40.342Z,995.31
2022-11-16T13:07:39.981Z,995.34
2022-11-16T13:08:39.968Z,995.35
2022-11-16T13:09:40.021Z,995.32
2022-11-16T13:10:40.069Z,995.34
2022-11-16T13:11:40.004Z,995.31
2022-11-16T13:12:39.948Z,995.34
2022-11-16T13:13:39.965Z,995.32
2022-11-16T13:14:39.505Z,995.30
2022-11-16T13:15:40.970Z,995.31
2022-11-16T13:16:41.176Z,995.32
2022-11-16T13:17:38.766Z,995.32
2022-11-16T13:18:38.724Z,995.29
2022-11-16T13:19:40.012Z,995.31
2022-11-16T13:20:39.970Z,995.27
2022-11-16T13:21:39.994Z,995.29
2022-11-16T13:22:38.343Z,995.27
2022-11-16T13:23:38.424Z,995.25
2022-11-16T13:24:39.978Z,995.22
2022-11-16T13:25:38.359Z,995.26
2022-11-16T13:26:40.159Z,995.26
2022-11-16T13:27:38.374Z,995.26
2022-11-16T13:28:38.684Z,995.25
2022-11-16T13:29:38.365Z,995.24
2022-11-16T13:30:38.406Z,995.25
2022-11-16T13:31:39.995Z,995.23
2022-11-16T13:32:38.414Z,995.23
2022-11-16T13:33:39.489Z,995.27
2022-11-16T13:34:38.539Z,995.28
2022-11-16T13:35:38.347Z,995.27
2022-11-16T13:36:40.033Z,995.24
2022-11-16T13:37:40.013Z,995.19
2022-11-16T13:38:39.981Z,995.20
2022-11-16T13:39:40.015Z,995.19
2022-11-16T13:40:39.994Z,995.18
2022-11-16T13:41:39.990Z,995.18
2022-11-16T13:42:40.127Z,995.20
2022-11-16T13:43:39.997Z,995.19
2022-11-16T13:44:39.987Z,995.17
2022-11-16T13:45:39.051Z,995.15
2022-11-16T13:46:56.519Z,995.14
2022-11-16T13:47:40.103Z,995.13
2022-11-16T13:48:40.445Z,995.11
2022-11-16T13:49:38.522Z,995.08
2022-11-16T13:50:40.136Z,995.05
2022-11-16T13:51:40.100Z,995.04
2022-11-16T13:53:06.476Z,995.04
2022-11-16T13:54:37.838Z,995.03
2022-11-16T13:54:47.309Z,995.03
2022-11-16T13:55:40.018Z,995.03
2022-11-16T13:56:40.075Z,995.02
2022-11-16T13:57:40.018Z,995.03
2022-11-16T13:58:40.142Z,995.02
2022-11-16T13:59:40.003Z,995.01
2022-11-16T14:00:39.544Z,995.01
2022-11-16T14:01:38.390Z,995.01
2022-11-16T14:02:40.033Z,994.99
2022-11-16T14:03:38.341Z,995.01
2022-11-16T14:04:38.363Z,994.97
2022-11-16T14:05:38.340Z,994.99
2022-11-16T14:06:38.349Z,995.00
2022-11-16T14:07:40.122Z,995.02
2022-11-16T14:08:39.406Z,995.03
2022-11-16T14:09:38.351Z,994.99
2022-11-16T14:10:38.397Z,995.01
2022-11-16T14:11:40.062Z,994.98
2022-11-16T14:12:40.023Z,995.00
2022-11-16T14:13:38.422Z,995.00
2022-11-16T14:14:40.041Z,994.97
2022-11-16T14:15:38.360Z,995.01
2022-11-16T14:16:40.052Z,994.99
2022-11-16T14:17:38.344Z,995.03
2022-11-16T14:18:40.056Z,994.98
2022-11-16T14:19:40.057Z,995.03
2022-11-16T14:20:40.036Z,995.02
2022-11-16T14:21:40.135Z,995.02
2022-11-16T14:22:40.732Z,995.02
2022-11-16T14:23:40.213Z,995.04
2022-11-16T14:24:38.339Z,995.05
2022-11-16T14:25:40.046Z,995.04
2022-11-16T14:26:40.017Z,995.06
2022-11-16T14:27:38.357Z,995.04
2022-11-16T14:28:40.039Z,995.03
2022-11-16T14:29:40.047Z,995.04
2022-11-16T14:30:40.226Z,995.02
2022-11-16T14:31:40.120Z,995.01
2022-11-16T14:32:42.673Z,995.05
2022-11-16T14:33:40.056Z,995.03
2022-11-16T14:34:38.412Z,995.01
2022-11-16T14:35:38.378Z,995.04
2022-11-16T14:36:38.368Z,995.00
2022-11-16T14:37:38.352Z,995.01
2022-11-16T14:38:40.095Z,995.04
2022-11-16T14:39:38.353Z,995.02
2022-11-16T14:40:41.277Z,995.03
2022-11-16T14:41:40.054Z,995.03
2022-11-16T14:42:54.766Z,995.03
2022-11-16T14:43:40.114Z,995.08
2022-11-16T14:44:41.121Z,995.06
2022-11-16T14:45:38.340Z,995.05
2022-11-16T14:46:39.620Z,995.06
2022-11-16T14:47:41.538Z,995.09
2022-11-16T14:48:40.123Z,995.02
2022-11-16T14:49:40.128Z,995.10
2022-11-16T14:50:41.024Z,995.07
2022-11-16T14:51:40.001Z,995.09
2022-11-16T14:52:40.155Z,995.07
2022-11-16T14:53:40.068Z,995.06
2022-11-16T14:54:40.129Z,995.04
2022-11-16T14:55:40.076Z,995.01
2022-11-16T14:56:40.056Z,995.01
2022-11-16T14:57:40.093Z,994.98
2022-11-16T14:58:40.066Z,995.00
2022-11-16T14:59:38.316Z,994.99
2022-11-16T15:00:38.305Z,994.98
2022-11-16T15:01:38.317Z,995.00
2022-11-16T15:02:38.416Z,995.00
2022-11-16T15:03:40.163Z,994.97
2022-11-16T15:04:38.290Z,994.98
2022-11-16T15:05:38.338Z,995.00
2022-11-16T15:06:39.601Z,994.98
2022-11-16T15:07:38.317Z,994.99
2022-11-16T15:08:38.342Z,994.99
2022-11-16T15:09:39.107Z,994.97
2022-11-16T15:10:40.091Z,995.03
2022-11-16T15:11:38.602Z,995.02
2022-11-16T15:12:40.160Z,995.07
2022-11-16T15:13:39.336Z,995.05
2022-11-16T15:14:40.068Z,995.09
2022-11-16T15:15:41.097Z,995.08
2022-11-16T15:16:39.306Z,995.12
2022-11-16T15:17:40.121Z,995.11
2022-11-16T15:18:40.092Z,995.12
2022-11-16T15:19:40.114Z,995.14
2022-11-16T15:20:40.114Z,995.18
2022-11-16T15:21:39.586Z,995.13
2022-11-16T15:22:40.132Z,995.15
2022-11-16T15:23:39.699Z,995.12
2022-11-16T15:24:38.327Z,995.07
2022-11-16T15:25:40.168Z,995.09
2022-11-16T15:26:38.399Z,995.10
2022-11-16T15:27:38.366Z,995.11
2022-11-16T15:28:39.151Z,995.05
2022-11-16T15:29:38.375Z,995.06
2022-11-16T15:30:39.254Z,995.11
2022-11-16T15:31:40.122Z,995.07
2022-11-16T15:32:38.249Z,995.12
2022-11-16T15:33:38.354Z,995.14
2022-11-16T15:34:43.096Z,995.13
2022-11-16T15:35:38.486Z,995.16
2022-11-16T15:36:38.255Z,995.15
2022-11-16T15:37:39.613Z,995.15
2022-11-16T15:38:38.264Z,995.19
2022-11-16T15:39:38.255Z,995.18
2022-11-16T15:40:39.616Z,995.17
2022-11-16T15:41:39.648Z,995.18
2022-11-16T15:42:41.209Z,995.17
2022-11-16T15:43:49.793Z,995.13
2022-11-16T15:44:39.256Z,995.12
2022-11-16T15:45:39.215Z,995.11
2022-11-16T15:46:39.196Z,995.10
2022-11-16T15:47:39.215Z,995.12
2022-11-16T15:48:39.207Z,995.11
2022-11-16T15:49:40.202Z,995.10
2022-11-16T15:50:39.634Z,995.11
2022-11-16T15:51:40.112Z,995.12
2022-11-16T15:52:40.127Z,995.15
2022-11-16T15:53:40.171Z,995.13
2022-11-16T15:54:40.220Z,995.14
2022-11-16T15:55:40.225Z,995.11
2022-11-16T15:56:40.102Z,995.15
2022-11-16T15:57:44.023Z,995.16
2022-11-16T15:58:40.130Z,995.24
2022-11-16T15:59:39.162Z,995.20
2022-11-16T16:00:40.174Z,995.22
2022-11-16T16:01:40.161Z,995.22
2022-11-16T16:12:55.650Z,995.07
2022-11-16T16:13:55.104Z,995.08
2022-11-16T16:14:55.677Z,995.12
2022-11-16T16:15:55.821Z,995.10
2022-11-16T16:16:55.914Z,995.11
2022-11-16T16:17:55.194Z,995.16
2022-11-16T16:18:55.639Z,995.15
2022-11-16T16:19:55.204Z,995.18
2022-11-16T16:20:55.745Z,995.21
2022-11-16T16:21:55.675Z,995.24
2022-11-16T16:22:55.878Z,995.20
2022-11-16T16:23:55.020Z,995.19
2022-11-16T16:24:55.631Z,995.17
2022-11-16T16:25:54.991Z,995.15
2022-11-16T16:26:55.643Z,995.17
2022-11-16T16:27:55.005Z,995.16
2022-11-16T16:28:55.641Z,995.12
2022-11-16T16:29:55.660Z,995.13
2022-11-16T16:30:55.647Z,995.14
2022-11-16T16:31:55.678Z,995.18
2022-11-16T16:32:56.224Z,995.19
2022-11-16T16:33:53.979Z,995.20
2022-11-16T16:34:53.969Z,995.23
2022-11-16T16:35:53.999Z,995.21
2022-11-16T16:36:53.978Z,995.18
2022-11-16T16:37:55.139Z,995.20
2022-11-16T16:38:53.989Z,995.19
2022-11-16T16:39:55.009Z,995.20
2022-11-16T16:40:53.959Z,995.23
2022-11-16T16:41:55.678Z,995.27
2022-11-16T16:42:54.973Z,995.26
2022-11-16T16:43:53.961Z,995.28
2022-11-16T16:44:55.346Z,995.22
2022-11-16T16:45:55.113Z,995.23
2022-11-16T16:46:55.708Z,995.16
2022-11-16T16:47:55.697Z,995.10
2022-11-16T16:48:55.643Z,995.08
2022-11-16T16:49:54.924Z,995.07
2022-11-16T16:50:55.676Z,995.02